createdAt,value
2022-09-23T00:01:04.215Z,6.88
2022-09-23T00:05:06.999Z,6.83
2022-09-23T00:09:09.041Z,6.76
2022-09-23T00:13:11.022Z,6.62
2022-09-23T00:17:13.494Z,6.65
2022-09-23T00:21:15.650Z,6.60
2022-09-23T00:25:17.767Z,6.68
2022-09-23T00:29:19.772Z,6.69
2022-09-23T00:33:21.755Z,6.63
2022-09-23T00:37:23.866Z,6.70
2022-09-23T00:41:26.823Z,6.77
2022-09-23T00:45:29.410Z,6.65
2022-09-23T00:49:31.456Z,6.48
2022-09-23T00:53:34.429Z,6.52
2022-09-23T00:57:38.603Z,6.47
2022-09-23T01:01:40.881Z,6.36
2022-09-23T01:05:43.013Z,6.40
2022-09-23T01:09:48.621Z,6.26
2022-09-23T01:13:53.604Z,6.13
2022-09-23T01:18:37.308Z,6.23
2022-09-23T01:23:08.132Z,6.26
2022-09-23T01:27:41.002Z,6.30
2022-09-23T01:32:03.148Z,6.40
2022-09-23T01:36:31.563Z,6.38
2022-09-23T01:40:42.637Z,6.07
2022-09-23T01:45:00.276Z,5.87
2022-09-23T01:49:15.098Z,5.88
2022-09-23T01:53:26.882Z,5.97
2022-09-23T01:57:38.211Z,6.05
2022-09-23T02:01:47.964Z,5.96
2022-09-23T02:06:16.926Z,5.92
2022-09-23T02:10:44.545Z,5.67
2022-09-23T02:15:11.318Z,5.53
2022-09-23T02:19:28.022Z,5.57
2022-09-23T02:23:32.792Z,5.63
2022-09-23T02:27:37.527Z,5.75
2022-09-23T02:31:56.494Z,5.83
2022-09-23T02:36:13.682Z,5.84
2022-09-23T02:40:31.349Z,5.79
2022-09-23T02:44:33.732Z,5.66
2022-09-23T02:48:47.455Z,5.55
2022-09-23T02:52:49.648Z,5.46
2022-09-23T02:56:53.254Z,5.38
2022-09-23T03:01:11.009Z,5.46
2022-09-23T03:05:24.752Z,5.45
2022-09-23T03:09:33.881Z,5.47
2022-09-23T03:14:06.912Z,5.55
2022-09-23T03:18:18.849Z,5.65
2022-09-23T03:22:32.093Z,5.68
2022-09-23T03:26:37.690Z,5.59
2022-09-23T03:30:43.492Z,5.35
2022-09-23T03:34:49.952Z,5.36
2022-09-23T03:38:59.022Z,5.48
2022-09-23T03:43:04.418Z,5.61
2022-09-23T03:47:06.541Z,5.73
2022-09-23T03:51:21.086Z,5.86
2022-09-23T03:55:23.096Z,5.90
2022-09-23T03:59:26.595Z,5.95
2022-09-23T04:03:29.214Z,6.02
2022-09-23T04:07:31.254Z,5.93
2022-09-23T04:11:33.340Z,5.82
2022-09-23T04:15:35.314Z,5.67
2022-09-23T04:19:37.686Z,5.70
2022-09-23T04:23:39.808Z,5.79
2022-09-23T04:27:41.826Z,5.92
2022-09-23T04:31:45.751Z,6.07
2022-09-23T04:35:52.020Z,6.15
2022-09-23T04:39:54.296Z,6.18
2022-09-23T04:43:57.485Z,6.17
2022-09-23T04:47:59.593Z,6.20
2022-09-23T04:52:02.745Z,6.21
2022-09-23T04:56:07.344Z,6.19
2022-09-23T05:00:12.061Z,6.13
2022-09-23T05:04:14.297Z,6.20
2022-09-23T05:08:16.335Z,6.21
2022-09-23T05:12:18.324Z,6.19
2022-09-23T05:16:23.127Z,6.15
2022-09-23T05:20:25.616Z,6.04
2022-09-23T05:24:27.836Z,5.93
2022-09-23T05:28:32.886Z,6.00
2022-09-23T05:32:34.877Z,6.05
2022-09-23T05:36:39.058Z,6.29
2022-09-23T05:40:41.428Z,6.55
2022-09-23T05:44:43.785Z,6.78
2022-09-23T05:48:47.213Z,7.02
2022-09-23T05:52:49.249Z,7.24
2022-09-23T05:56:51.242Z,7.36
2022-09-23T06:00:56.694Z,7.57
2022-09-23T06:04:58.696Z,7.81
2022-09-23T06:09:01.395Z,8.09
2022-09-23T06:13:03.540Z,8.25
2022-09-23T06:17:05.731Z,8.42
2022-09-23T06:21:09.102Z,8.56
2022-09-23T06:25:12.207Z,8.65
2022-09-23T06:29:14.422Z,8.77
2022-09-23T06:33:18.321Z,8.92
2022-09-23T06:37:23.290Z,9.12
2022-09-23T06:41:25.291Z,9.34
2022-09-23T06:45:30.729Z,9.64
2022-09-23T06:49:33.861Z,9.97
2022-09-23T06:53:37.027Z,10.29
2022-09-23T06:57:39.597Z,10.55
2022-09-23T07:01:41.840Z,10.81
2022-09-23T07:05:44.018Z,11.03
2022-09-23T07:09:46.119Z,11.18
2022-09-23T07:13:48.366Z,11.32
2022-09-23T07:17:50.458Z,11.42
2022-09-23T07:21:52.423Z,11.51
2022-09-23T07:25:58.684Z,11.58
2022-09-23T07:30:00.773Z,11.62
2022-09-23T07:34:02.878Z,11.67
2022-09-23T07:38:04.879Z,11.69
2022-09-23T07:42:07.008Z,11.77
2022-09-23T07:46:13.059Z,11.76
2022-09-23T07:50:15.471Z,11.80
2022-09-23T07:54:18.314Z,11.84
2022-09-23T07:58:20.600Z,11.88
2022-09-23T08:02:22.837Z,11.97
2022-09-23T08:06:25.385Z,12.01
2022-09-23T08:10:27.491Z,12.05
2022-09-23T08:14:29.526Z,12.13
2022-09-23T08:18:31.770Z,12.18
2022-09-23T08:22:33.818Z,12.31
2022-09-23T08:26:35.818Z,12.43
2022-09-23T08:30:39.314Z,12.58
2022-09-23T08:34:41.550Z,12.75
2022-09-23T08:38:43.630Z,12.93
2022-09-23T08:42:46.707Z,13.08
2022-09-23T08:47:06.777Z,13.28
2022-09-23T08:51:14.586Z,13.45
2022-09-23T08:55:17.557Z,13.67
2022-09-23T08:59:28.785Z,13.91
2022-09-23T09:03:55.043Z,14.11
2022-09-23T09:08:00.210Z,14.33
2022-09-23T09:12:17.147Z,14.50
2022-09-23T09:17:00.309Z,14.68
2022-09-23T09:21:11.689Z,14.79
2022-09-23T09:25:37.958Z,14.91
2022-09-23T09:29:44.609Z,15.04
2022-09-23T09:34:11.928Z,15.13
2022-09-23T09:38:14.941Z,15.24
2022-09-23T09:42:24.395Z,15.37
2022-09-23T09:46:52.758Z,15.48
2022-09-23T09:50:55.991Z,15.50
2022-09-23T09:55:25.942Z,15.54
2022-09-23T09:59:28.872Z,15.58
2022-09-23T10:03:39.227Z,15.69
2022-09-23T10:07:41.266Z,15.78
2022-09-23T10:12:02.890Z,15.85
2022-09-23T10:16:05.294Z,15.94
2022-09-23T10:20:09.046Z,16.08
2022-09-23T10:24:23.026Z,16.25
2022-09-23T10:28:48.433Z,16.33
2022-09-23T10:32:53.061Z,16.39
2022-09-23T10:37:36.404Z,16.48
2022-09-23T10:42:12.159Z,16.58
2022-09-23T10:46:41.371Z,16.73
2022-09-23T10:50:55.462Z,16.75
2022-09-23T10:55:19.305Z,16.85
2022-09-23T10:59:36.551Z,16.96
2022-09-23T11:03:54.296Z,17.08
2022-09-23T11:08:19.814Z,17.19
2022-09-23T11:12:33.986Z,17.34
2022-09-23T11:16:42.095Z,17.51
2022-09-23T11:21:07.169Z,17.65
2022-09-23T11:25:18.463Z,17.81
2022-09-23T11:29:42.864Z,17.88
2022-09-23T11:33:52.750Z,18.01
2022-09-23T11:38:07.533Z,18.07
2022-09-23T11:42:20.001Z,18.14
2022-09-23T11:46:44.198Z,18.12
2022-09-23T11:51:14.592Z,18.20
2022-09-23T11:55:22.777Z,18.28
2022-09-23T11:59:51.086Z,18.45
2022-09-23T12:04:17.847Z,18.61
2022-09-23T12:08:26.666Z,18.76
2022-09-23T12:12:49.170Z,18.80
2022-09-23T12:17:19.035Z,18.82
2022-09-23T12:21:51.693Z,18.93
2022-09-23T12:25:58.617Z,19.05
2022-09-23T12:30:12.594Z,19.23
2022-09-23T12:34:20.877Z,19.44
2022-09-23T12:38:31.654Z,19.61
2022-09-23T12:42:33.814Z,19.71
2022-09-23T12:46:36.059Z,19.70
2022-09-23T12:51:00.367Z,19.56
2022-09-23T12:55:22.004Z,19.54
2022-09-23T12:59:32.918Z,19.57
2022-09-23T13:03:53.715Z,19.53
2022-09-23T13:08:02.429Z,19.36
2022-09-23T13:12:08.385Z,19.19
2022-09-23T13:16:14.107Z,19.05
2022-09-23T13:20:19.101Z,18.99
2022-09-23T13:24:31.060Z,19.14
2022-09-23T13:28:54.734Z,19.36
2022-09-23T13:33:12.731Z,19.56
2022-09-23T13:37:22.681Z,19.56
2022-09-23T13:41:28.615Z,19.57
2022-09-23T13:45:32.350Z,19.68
2022-09-23T13:49:36.250Z,19.77
2022-09-23T13:53:38.769Z,19.71
2022-09-23T13:57:41.284Z,19.70
2022-09-23T14:01:43.306Z,19.73
2022-09-23T14:05:46.270Z,19.82
2022-09-23T14:09:50.902Z,19.88
2022-09-23T14:13:54.937Z,19.92
2022-09-23T14:18:06.204Z,19.91
2022-09-23T14:22:23.407Z,19.90
2022-09-23T14:26:26.208Z,19.87
2022-09-23T14:30:28.815Z,19.76
2022-09-23T14:34:51.939Z,19.71
2022-09-23T14:39:04.903Z,19.64
2022-09-23T14:43:23.114Z,19.51
2022-09-23T14:47:25.448Z,19.41
2022-09-23T14:51:35.039Z,19.32
2022-09-23T14:55:37.205Z,19.26
2022-09-23T14:59:51.168Z,19.26
2022-09-23T15:03:55.609Z,19.25
2022-09-23T15:08:01.358Z,19.25
2022-09-23T15:12:12.177Z,19.28
2022-09-23T15:16:15.899Z,19.25
2022-09-23T15:20:19.754Z,19.15
2022-09-23T15:24:35.537Z,19.05
2022-09-23T15:28:38.026Z,18.97
2022-09-23T15:32:40.545Z,18.86
2022-09-23T15:36:42.665Z,18.75
2022-09-23T15:40:44.939Z,18.61
2022-09-23T15:44:47.013Z,18.50
2022-09-23T15:49:03.392Z,18.38
2022-09-23T15:53:06.696Z,18.28
2022-09-23T15:57:08.699Z,18.16
2022-09-23T16:01:24.041Z,18.06
2022-09-23T16:05:36.753Z,18.00
2022-09-23T16:09:38.829Z,17.96
2022-09-23T16:13:40.793Z,17.92
2022-09-23T16:17:44.178Z,17.81
2022-09-23T16:21:46.303Z,17.71
2022-09-23T16:25:48.378Z,17.58
2022-09-23T16:29:50.371Z,17.46
2022-09-23T16:33:53.444Z,17.37
2022-09-23T16:37:55.828Z,17.26
2022-09-23T16:41:58.513Z,17.17
2022-09-23T16:46:00.987Z,17.04
2022-09-23T16:50:03.191Z,16.93
2022-09-23T16:54:11.049Z,16.77
2022-09-23T16:58:13.070Z,16.65
2022-09-23T17:02:33.897Z,16.56
2022-09-23T17:06:42.031Z,16.50
2022-09-23T17:10:45.781Z,16.41
2022-09-23T17:14:47.783Z,16.34
2022-09-23T17:18:49.841Z,16.29
2022-09-23T17:22:51.846Z,16.24
2022-09-23T17:26:53.921Z,16.17
2022-09-23T17:31:00.822Z,16.02
2022-09-23T17:35:04.593Z,15.85
2022-09-23T17:39:07.011Z,15.63
2022-09-23T17:43:09.363Z,15.48
2022-09-23T17:47:11.505Z,15.41
2022-09-23T17:51:16.081Z,15.29
2022-09-23T17:55:19.118Z,15.17
2022-09-23T17:59:21.129Z,15.07
2022-09-23T18:03:24.967Z,14.95
2022-09-23T18:07:26.967Z,14.71
2022-09-23T18:11:30.900Z,14.66
2022-09-23T18:15:39.987Z,14.65
2022-09-23T18:19:42.469Z,14.74
2022-09-23T18:23:44.479Z,14.62
2022-09-23T18:27:46.525Z,14.53
2022-09-23T18:31:50.990Z,14.46
2022-09-23T18:35:53.148Z,14.43
2022-09-23T18:39:55.546Z,14.35
2022-09-23T18:43:57.630Z,14.23
2022-09-23T18:48:18.240Z,14.07
2022-09-23T18:52:20.771Z,14.06
2022-09-23T18:56:24.600Z,13.91
2022-09-23T19:00:27.049Z,13.85
2022-09-23T19:04:29.156Z,13.86
2022-09-23T19:08:31.211Z,13.86
2022-09-23T19:12:33.180Z,13.85
2022-09-23T19:16:36.436Z,13.85
2022-09-23T19:20:38.402Z,13.72
2022-09-23T19:24:40.497Z,13.56
2022-09-23T19:28:50.931Z,13.44
2022-09-23T19:32:52.960Z,13.33
2022-09-23T19:36:59.560Z,13.34
2022-09-23T19:41:09.114Z,13.38
2022-09-23T19:45:11.167Z,13.46
2022-09-23T19:49:13.323Z,13.52
2022-09-23T19:53:15.449Z,13.50
2022-09-23T19:57:17.892Z,13.42
2022-09-23T20:01:21.473Z,13.29
2022-09-23T20:05:25.049Z,13.19
2022-09-23T20:09:29.016Z,12.94
2022-09-23T20:13:32.498Z,12.85
2022-09-23T20:17:35.215Z,12.68
2022-09-23T20:21:37.949Z,12.67
2022-09-23T20:25:58.870Z,12.61
2022-09-23T20:30:02.700Z,12.52
2022-09-23T20:34:07.080Z,12.43
2022-09-23T20:38:10.415Z,12.17
2022-09-23T20:42:16.508Z,12.06
2022-09-23T20:46:18.650Z,11.86
2022-09-23T20:50:20.816Z,11.78
2022-09-23T20:54:22.819Z,11.70
2022-09-23T20:58:30.333Z,11.65
2022-09-23T21:02:32.412Z,11.66
2022-09-23T21:06:36.803Z,11.69
2022-09-23T21:10:38.957Z,11.54
2022-09-23T21:14:41.015Z,11.31
2022-09-23T21:18:43.958Z,11.14
2022-09-23T21:22:49.880Z,11.07
2022-09-23T21:26:51.901Z,11.10
2022-09-23T21:30:58.458Z,11.21
2022-09-23T21:35:00.552Z,11.31
2022-09-23T21:39:04.486Z,11.34
2022-09-23T21:43:06.492Z,11.25
2022-09-23T21:47:08.564Z,11.05
2022-09-23T21:51:14.074Z,11.02
2022-09-23T21:55:16.513Z,11.05
2022-09-23T21:59:18.583Z,10.88
2022-09-23T22:03:21.230Z,10.73
2022-09-23T22:07:23.807Z,10.71
2022-09-23T22:11:47.396Z,10.62
2022-09-23T22:15:49.662Z,10.46
2022-09-23T22:19:51.714Z,10.52
2022-09-23T22:23:57.060Z,10.59
2022-09-23T22:28:17.914Z,10.59
2022-09-23T22:32:39.095Z,10.63
2022-09-23T22:36:41.170Z,10.54
2022-09-23T22:40:43.472Z,10.44
2022-09-23T22:44:45.925Z,10.47
2022-09-23T22:48:53.221Z,10.44
2022-09-23T22:52:55.251Z,10.45
2022-09-23T22:56:57.224Z,10.51
2022-09-23T23:00:59.303Z,10.55
2022-09-23T23:05:02.163Z,10.41
2022-09-23T23:09:18.170Z,10.39
2022-09-23T23:13:21.554Z,10.41
2022-09-23T23:17:23.529Z,10.46
2022-09-23T23:21:25.694Z,10.52
2022-09-23T23:25:28.129Z,10.48
2022-09-23T23:29:30.118Z,10.44
2022-09-23T23:33:32.335Z,10.44
2022-09-23T23:37:34.354Z,10.47
2022-09-23T23:41:37.450Z,10.56
2022-09-23T23:45:39.766Z,10.64
2022-09-23T23:49:41.796Z,10.74
2022-09-23T23:53:43.876Z,10.77
2022-09-23T23:57:45.838Z,10.74
